sensor_id;sensor_type;location;lat;lon;timestamp;P1;durP1;ratioP1;P2;durP2;ratioP2
12814;SDS011;6472;52.328;13.070;2024-01-27T00:01:29;10.30;;;2.50;;
12814;SDS011;6472;52.328;13.070;2024-01-27T00:03:57;6.40;;;1.87;;
12814;SDS011;6472;52.328;13.070;2024-01-27T00:06:26;7.70;;;1.97;;
12814;SDS011;6472;52.328;13.070;2024-01-27T00:08:54;6.03;;;1.63;;
12814;SDS011;6472;52.328;13.070;2024-01-27T00:11:22;8.87;;;2.03;;
12814;SDS011;6472;52.328;13.070;2024-01-27T00:13:53;12.17;;;2.33;;
12814;SDS011;6472;52.328;13.070;2024-01-27T00:16:21;5.30;;;1.83;;
12814;SDS011;6472;52.328;13.070;2024-01-27T00:18:50;9.20;;;2.40;;
12814;SDS011;6472;52.328;13.070;2024-01-27T00:21:18;7.97;;;1.80;;
12814;SDS011;6472;52.328;13.070;2024-01-27T00:23:46;10.90;;;2.03;;
12814;SDS011;6472;52.328;13.070;2024-01-27T00:26:15;13.57;;;2.50;;
12814;SDS011;6472;52.328;13.070;2024-01-27T00:28:43;12.90;;;2.07;;
12814;SDS011;6472;52.328;13.070;2024-01-27T00:31:11;13.13;;;2.67;;
12814;SDS011;6472;52.328;13.070;2024-01-27T00:33:39;12.07;;;2.30;;
12814;SDS011;6472;52.328;13.070;2024-01-27T00:36:09;10.00;;;1.50;;
12814;SDS011;6472;52.328;13.070;2024-01-27T00:38:37;9.00;;;2.00;;
12814;SDS011;6472;52.328;13.070;2024-01-27T00:41:06;4.73;;;1.67;;
12814;SDS011;6472;52.328;13.070;2024-01-27T00:43:35;11.83;;;2.60;;
12814;SDS011;6472;52.328;13.070;2024-01-27T00:46:03;6.60;;;1.70;;
12814;SDS011;6472;52.328;13.070;2024-01-27T00:48:31;7.97;;;2.23;;
12814;SDS011;6472;52.328;13.070;2024-01-27T00:51:00;7.10;;;2.20;;
12814;SDS011;6472;52.328;13.070;2024-01-27T00:53:29;13.87;;;3.03;;
12814;SDS011;6472;52.328;13.070;2024-01-27T00:55:57;21.33;;;3.13;;
12814;SDS011;6472;52.328;13.070;2024-01-27T00:58:25;8.30;;;2.50;;
12814;SDS011;6472;52.328;13.070;2024-01-27T01:00:53;14.13;;;2.20;;
12814;SDS011;6472;52.328;13.070;2024-01-27T01:03:21;13.67;;;2.70;;
12814;SDS011;6472;52.328;13.070;2024-01-27T01:05:49;7.30;;;1.90;;
12814;SDS011;6472;52.328;13.070;2024-01-27T01:08:17;11.67;;;2.63;;
12814;SDS011;6472;52.328;13.070;2024-01-27T01:10:46;15.53;;;2.00;;
12814;SDS011;6472;52.328;13.070;2024-01-27T01:13:14;10.13;;;2.43;;
12814;SDS011;6472;52.328;13.070;2024-01-27T01:15:42;11.60;;;2.73;;
12814;SDS011;6472;52.328;13.070;2024-01-27T01:18:10;10.37;;;2.07;;
12814;SDS011;6472;52.328;13.070;2024-01-27T01:20:38;15.17;;;2.23;;
12814;SDS011;6472;52.328;13.070;2024-01-27T01:23:07;9.03;;;1.90;;
12814;SDS011;6472;52.328;13.070;2024-01-27T01:25:35;11.37;;;2.07;;
12814;SDS011;6472;52.328;13.070;2024-01-27T01:28:05;11.03;;;1.97;;
12814;SDS011;6472;52.328;13.070;2024-01-27T01:30:33;6.33;;;1.80;;
12814;SDS011;6472;52.328;13.070;2024-01-27T01:33:01;8.83;;;2.40;;
12814;SDS011;6472;52.328;13.070;2024-01-27T01:35:30;12.73;;;2.07;;
12814;SDS011;6472;52.328;13.070;2024-01-27T01:37:58;5.87;;;1.60;;
12814;SDS011;6472;52.328;13.070;2024-01-27T01:40:26;9.00;;;1.93;;
12814;SDS011;6472;52.328;13.070;2024-01-27T01:42:53;14.17;;;2.07;;
12814;SDS011;6472;52.328;13.070;2024-01-27T01:45:23;8.07;;;2.13;;
12814;SDS011;6472;52.328;13.070;2024-01-27T01:47:51;13.50;;;2.70;;
12814;SDS011;6472;52.328;13.070;2024-01-27T01:50:20;7.07;;;1.50;;
12814;SDS011;6472;52.328;13.070;2024-01-27T01:52:48;9.00;;;2.10;;
12814;SDS011;6472;52.328;13.070;2024-01-27T01:55:19;8.47;;;2.03;;
12814;SDS011;6472;52.328;13.070;2024-01-27T01:57:47;10.63;;;2.00;;
12814;SDS011;6472;52.328;13.070;2024-01-27T02:00:16;14.73;;;2.50;;
12814;SDS011;6472;52.328;13.070;2024-01-27T02:02:46;8.60;;;2.13;;
12814;SDS011;6472;52.328;13.070;2024-01-27T02:05:14;3.40;;;1.97;;
12814;SDS011;6472;52.328;13.070;2024-01-27T02:07:42;8.83;;;1.90;;
12814;SDS011;6472;52.328;13.070;2024-01-27T02:10:12;9.80;;;2.30;;
12814;SDS011;6472;52.328;13.070;2024-01-27T02:12:42;22.23;;;2.80;;
12814;SDS011;6472;52.328;13.070;2024-01-27T02:15:10;12.33;;;2.87;;
12814;SDS011;6472;52.328;13.070;2024-01-27T02:17:39;10.27;;;2.47;;
12814;SDS011;6472;52.328;13.070;2024-01-27T02:20:10;10.83;;;2.10;;
12814;SDS011;6472;52.328;13.070;2024-01-27T02:22:38;6.63;;;1.77;;
12814;SDS011;6472;52.328;13.070;2024-01-27T02:25:07;9.20;;;2.47;;
12814;SDS011;6472;52.328;13.070;2024-01-27T02:27:36;9.23;;;2.43;;
12814;SDS011;6472;52.328;13.070;2024-01-27T02:30:04;4.03;;;1.50;;
12814;SDS011;6472;52.328;13.070;2024-01-27T02:32:33;4.83;;;2.10;;
12814;SDS011;6472;52.328;13.070;2024-01-27T02:35:01;13.67;;;2.23;;
12814;SDS011;6472;52.328;13.070;2024-01-27T02:37:29;6.77;;;1.70;;
12814;SDS011;6472;52.328;13.070;2024-01-27T02:39:57;10.77;;;1.77;;
12814;SDS011;6472;52.328;13.070;2024-01-27T02:42:27;12.50;;;1.70;;
12814;SDS011;6472;52.328;13.070;2024-01-27T02:44:55;3.53;;;1.97;;
12814;SDS011;6472;52.328;13.070;2024-01-27T02:47:23;10.87;;;2.10;;
12814;SDS011;6472;52.328;13.070;2024-01-27T02:49:51;8.13;;;1.33;;
12814;SDS011;6472;52.328;13.070;2024-01-27T02:52:19;2.80;;;1.33;;
12814;SDS011;6472;52.328;13.070;2024-01-27T02:54:47;11.00;;;2.40;;
12814;SDS011;6472;52.328;13.070;2024-01-27T02:57:15;11.53;;;2.70;;
12814;SDS011;6472;52.328;13.070;2024-01-27T02:59:46;6.43;;;1.27;;
12814;SDS011;6472;52.328;13.070;2024-01-27T03:02:14;9.40;;;1.83;;
12814;SDS011;6472;52.328;13.070;2024-01-27T03:04:42;9.60;;;2.20;;
12814;SDS011;6472;52.328;13.070;2024-01-27T03:07:10;6.43;;;2.00;;
12814;SDS011;6472;52.328;13.070;2024-01-27T03:09:38;11.53;;;2.77;;
12814;SDS011;6472;52.328;13.070;2024-01-27T03:12:06;7.57;;;2.20;;
12814;SDS011;6472;52.328;13.070;2024-01-27T03:14:35;11.47;;;2.80;;
12814;SDS011;6472;52.328;13.070;2024-01-27T03:17:04;14.47;;;2.87;;
12814;SDS011;6472;52.328;13.070;2024-01-27T03:19:33;11.37;;;2.77;;
12814;SDS011;6472;52.328;13.070;2024-01-27T03:22:01;8.60;;;2.10;;
12814;SDS011;6472;52.328;13.070;2024-01-27T03:24:29;10.70;;;2.40;;
12814;SDS011;6472;52.328;13.070;2024-01-27T03:26:57;11.03;;;2.50;;
12814;SDS011;6472;52.328;13.070;2024-01-27T03:29:25;9.63;;;2.00;;
12814;SDS011;6472;52.328;13.070;2024-01-27T03:31:54;12.93;;;1.87;;
12814;SDS011;6472;52.328;13.070;2024-01-27T03:34:23;9.80;;;2.40;;
12814;SDS011;6472;52.328;13.070;2024-01-27T03:36:53;11.23;;;2.57;;
12814;SDS011;6472;52.328;13.070;2024-01-27T03:39:22;6.77;;;1.97;;
12814;SDS011;6472;52.328;13.070;2024-01-27T03:41:50;11.10;;;2.00;;
12814;SDS011;6472;52.328;13.070;2024-01-27T03:44:18;10.47;;;2.57;;
12814;SDS011;6472;52.328;13.070;2024-01-27T03:46:46;12.97;;;3.50;;
12814;SDS011;6472;52.328;13.070;2024-01-27T03:49:15;6.60;;;1.47;;
12814;SDS011;6472;52.328;13.070;2024-01-27T03:51:44;7.10;;;2.10;;
12814;SDS011;6472;52.328;13.070;2024-01-27T03:54:12;9.20;;;2.40;;
12814;SDS011;6472;52.328;13.070;2024-01-27T03:56:40;20.93;;;3.03;;
12814;SDS011;6472;52.328;13.070;2024-01-27T03:59:09;13.30;;;2.30;;
12814;SDS011;6472;52.328;13.070;2024-01-27T04:01:37;2.90;;;1.23;;
12814;SDS011;6472;52.328;13.070;2024-01-27T04:04:05;21.73;;;2.97;;
12814;SDS011;6472;52.328;13.070;2024-01-27T04:06:37;8.87;;;2.40;;
12814;SDS011;6472;52.328;13.070;2024-01-27T04:09:07;6.00;;;2.23;;
12814;SDS011;6472;52.328;13.070;2024-01-27T04:11:36;9.13;;;2.00;;
12814;SDS011;6472;52.328;13.070;2024-01-27T04:14:05;6.57;;;1.97;;
12814;SDS011;6472;52.328;13.070;2024-01-27T04:16:34;7.87;;;2.50;;
12814;SDS011;6472;52.328;13.070;2024-01-27T04:19:08;12.50;;;1.90;;
12814;SDS011;6472;52.328;13.070;2024-01-27T04:21:36;9.63;;;2.53;;
12814;SDS011;6472;52.328;13.070;2024-01-27T04:24:05;9.73;;;1.40;;
12814;SDS011;6472;52.328;13.070;2024-01-27T04:26:34;6.57;;;2.13;;
12814;SDS011;6472;52.328;13.070;2024-01-27T04:29:02;11.67;;;2.70;;
12814;SDS011;6472;52.328;13.070;2024-01-27T04:31:30;14.93;;;2.80;;
12814;SDS011;6472;52.328;13.070;2024-01-27T04:33:58;9.97;;;2.17;;
12814;SDS011;6472;52.328;13.070;2024-01-27T04:36:26;14.57;;;2.63;;
12814;SDS011;6472;52.328;13.070;2024-01-27T04:38:56;6.83;;;1.90;;
12814;SDS011;6472;52.328;13.070;2024-01-27T04:41:25;10.40;;;1.80;;
12814;SDS011;6472;52.328;13.070;2024-01-27T04:43:53;9.70;;;2.70;;
12814;SDS011;6472;52.328;13.070;2024-01-27T04:46:22;8.13;;;2.00;;
12814;SDS011;6472;52.328;13.070;2024-01-27T04:48:50;16.70;;;2.50;;
12814;SDS011;6472;52.328;13.070;2024-01-27T04:51:18;13.27;;;2.70;;
12814;SDS011;6472;52.328;13.070;2024-01-27T04:53:46;8.73;;;1.97;;
12814;SDS011;6472;52.328;13.070;2024-01-27T04:56:14;14.57;;;2.53;;
12814;SDS011;6472;52.328;13.070;2024-01-27T04:58:44;4.47;;;1.33;;
12814;SDS011;6472;52.328;13.070;2024-01-27T05:01:12;6.33;;;1.77;;
12814;SDS011;6472;52.328;13.070;2024-01-27T05:03:40;9.20;;;2.67;;
12814;SDS011;6472;52.328;13.070;2024-01-27T05:06:08;16.00;;;2.17;;
12814;SDS011;6472;52.328;13.070;2024-01-27T05:08:37;7.67;;;1.73;;
12814;SDS011;6472;52.328;13.070;2024-01-27T05:11:06;9.73;;;1.73;;
12814;SDS011;6472;52.328;13.070;2024-01-27T05:13:34;4.90;;;2.00;;
12814;SDS011;6472;52.328;13.070;2024-01-27T05:16:05;7.90;;;2.67;;
12814;SDS011;6472;52.328;13.070;2024-01-27T05:18:34;5.43;;;1.97;;
12814;SDS011;6472;52.328;13.070;2024-01-27T05:21:02;15.80;;;3.07;;
12814;SDS011;6472;52.328;13.070;2024-01-27T05:23:30;8.07;;;2.27;;
12814;SDS011;6472;52.328;13.070;2024-01-27T05:25:58;7.77;;;2.00;;
12814;SDS011;6472;52.328;13.070;2024-01-27T05:28:26;9.63;;;1.90;;
12814;SDS011;6472;52.328;13.070;2024-01-27T05:30:55;8.37;;;2.27;;
12814;SDS011;6472;52.328;13.070;2024-01-27T05:33:24;4.37;;;1.63;;
12814;SDS011;6472;52.328;13.070;2024-01-27T05:35:52;11.93;;;2.10;;
12814;SDS011;6472;52.328;13.070;2024-01-27T05:38:20;9.17;;;2.10;;
12814;SDS011;6472;52.328;13.070;2024-01-27T05:40:48;9.10;;;1.90;;
12814;SDS011;6472;52.328;13.070;2024-01-27T05:43:17;7.63;;;2.30;;
12814;SDS011;6472;52.328;13.070;2024-01-27T05:45:45;8.77;;;2.93;;
12814;SDS011;6472;52.328;13.070;2024-01-27T05:48:13;6.97;;;1.97;;
12814;SDS011;6472;52.328;13.070;2024-01-27T05:50:43;10.10;;;2.43;;
12814;SDS011;6472;52.328;13.070;2024-01-27T05:53:11;10.33;;;2.00;;
12814;SDS011;6472;52.328;13.070;2024-01-27T05:55:39;6.00;;;2.20;;
12814;SDS011;6472;52.328;13.070;2024-01-27T05:58:07;7.43;;;1.90;;
12814;SDS011;6472;52.328;13.070;2024-01-27T06:00:35;7.97;;;2.00;;
12814;SDS011;6472;52.328;13.070;2024-01-27T06:03:03;9.03;;;1.97;;
12814;SDS011;6472;52.328;13.070;2024-01-27T06:05:31;9.97;;;1.80;;
12814;SDS011;6472;52.328;13.070;2024-01-27T06:08:00;6.57;;;1.60;;
12814;SDS011;6472;52.328;13.070;2024-01-27T06:10:28;9.47;;;2.47;;
12814;SDS011;6472;52.328;13.070;2024-01-27T06:12:57;8.67;;;2.53;;
12814;SDS011;6472;52.328;13.070;2024-01-27T06:15:25;6.07;;;2.17;;
12814;SDS011;6472;52.328;13.070;2024-01-27T06:17:53;10.40;;;2.73;;
12814;SDS011;6472;52.328;13.070;2024-01-27T06:20:21;4.07;;;1.73;;
12814;SDS011;6472;52.328;13.070;2024-01-27T06:22:49;8.20;;;1.87;;
12814;SDS011;6472;52.328;13.070;2024-01-27T06:25:20;9.37;;;2.27;;
12814;SDS011;6472;52.328;13.070;2024-01-27T06:27:48;15.57;;;2.73;;
12814;SDS011;6472;52.328;13.070;2024-01-27T06:30:16;15.80;;;2.53;;
12814;SDS011;6472;52.328;13.070;2024-01-27T06:32:44;7.87;;;2.30;;
12814;SDS011;6472;52.328;13.070;2024-01-27T06:35:14;10.53;;;2.57;;
12814;SDS011;6472;52.328;13.070;2024-01-27T06:37:42;11.67;;;2.10;;
12814;SDS011;6472;52.328;13.070;2024-01-27T06:40:11;15.60;;;2.60;;
12814;SDS011;6472;52.328;13.070;2024-01-27T06:42:41;11.83;;;2.80;;
12814;SDS011;6472;52.328;13.070;2024-01-27T06:45:10;11.40;;;2.17;;
12814;SDS011;6472;52.328;13.070;2024-01-27T06:47:39;16.07;;;2.23;;
12814;SDS011;6472;52.328;13.070;2024-01-27T06:50:08;10.17;;;2.63;;
12814;SDS011;6472;52.328;13.070;2024-01-27T06:52:38;15.33;;;2.57;;
12814;SDS011;6472;52.328;13.070;2024-01-27T06:55:06;9.30;;;2.30;;
12814;SDS011;6472;52.328;13.070;2024-01-27T06:57:37;6.93;;;1.77;;
12814;SDS011;6472;52.328;13.070;2024-01-27T07:00:08;6.47;;;1.90;;
12814;SDS011;6472;52.328;13.070;2024-01-27T07:02:40;10.47;;;2.33;;
12814;SDS011;6472;52.328;13.070;2024-01-27T07:05:09;13.30;;;2.43;;
12814;SDS011;6472;52.328;13.070;2024-01-27T07:07:38;12.13;;;2.10;;
12814;SDS011;6472;52.328;13.070;2024-01-27T07:10:10;8.30;;;2.63;;
12814;SDS011;6472;52.328;13.070;2024-01-27T07:12:39;14.73;;;2.83;;
12814;SDS011;6472;52.328;13.070;2024-01-27T07:15:14;9.23;;;2.27;;
12814;SDS011;6472;52.328;13.070;2024-01-27T07:17:42;11.10;;;2.57;;
12814;SDS011;6472;52.328;13.070;2024-01-27T07:20:11;8.23;;;2.57;;
12814;SDS011;6472;52.328;13.070;2024-01-27T07:22:39;11.93;;;2.20;;
12814;SDS011;6472;52.328;13.070;2024-01-27T07:25:08;11.23;;;2.07;;
12814;SDS011;6472;52.328;13.070;2024-01-27T07:27:36;8.13;;;2.07;;
12814;SDS011;6472;52.328;13.070;2024-01-27T07:30:05;5.90;;;2.27;;
12814;SDS011;6472;52.328;13.070;2024-01-27T07:32:36;11.43;;;2.63;;
12814;SDS011;6472;52.328;13.070;2024-01-27T07:35:07;13.40;;;2.33;;
12814;SDS011;6472;52.328;13.070;2024-01-27T07:37:38;12.23;;;2.30;;
12814;SDS011;6472;52.328;13.070;2024-01-27T07:40:07;4.47;;;2.40;;
12814;SDS011;6472;52.328;13.070;2024-01-27T07:42:36;12.97;;;2.67;;
12814;SDS011;6472;52.328;13.070;2024-01-27T07:45:05;16.37;;;2.93;;
12814;SDS011;6472;52.328;13.070;2024-01-27T07:47:34;10.17;;;2.43;;
12814;SDS011;6472;52.328;13.070;2024-01-27T07:50:04;7.83;;;2.10;;
12814;SDS011;6472;52.328;13.070;2024-01-27T07:52:33;7.57;;;2.27;;
12814;SDS011;6472;52.328;13.070;2024-01-27T07:55:01;7.93;;;2.07;;
12814;SDS011;6472;52.328;13.070;2024-01-27T07:57:30;7.30;;;2.30;;
12814;SDS011;6472;52.328;13.070;2024-01-27T07:59:58;10.47;;;2.50;;
12814;SDS011;6472;52.328;13.070;2024-01-27T08:02:27;15.13;;;2.43;;
12814;SDS011;6472;52.328;13.070;2024-01-27T08:04:56;10.20;;;2.77;;
12814;SDS011;6472;52.328;13.070;2024-01-27T08:07:24;10.40;;;3.17;;
12814;SDS011;6472;52.328;13.070;2024-01-27T08:09:52;12.13;;;2.87;;
12814;SDS011;6472;52.328;13.070;2024-01-27T08:12:20;5.97;;;2.33;;
12814;SDS011;6472;52.328;13.070;2024-01-27T08:14:48;18.87;;;3.47;;
12814;SDS011;6472;52.328;13.070;2024-01-27T08:17:16;12.50;;;2.47;;
12814;SDS011;6472;52.328;13.070;2024-01-27T08:19:44;9.30;;;2.30;;
12814;SDS011;6472;52.328;13.070;2024-01-27T08:22:13;12.70;;;2.43;;
12814;SDS011;6472;52.328;13.070;2024-01-27T08:24:41;6.97;;;2.77;;
12814;SDS011;6472;52.328;13.070;2024-01-27T08:27:10;10.73;;;2.63;;
12814;SDS011;6472;52.328;13.070;2024-01-27T08:29:38;6.67;;;2.43;;
12814;SDS011;6472;52.328;13.070;2024-01-27T08:32:06;10.33;;;2.77;;
12814;SDS011;6472;52.328;13.070;2024-01-27T08:34:36;9.40;;;3.50;;
12814;SDS011;6472;52.328;13.070;2024-01-27T08:37:13;12.20;;;3.23;;
12814;SDS011;6472;52.328;13.070;2024-01-27T08:39:45;12.00;;;3.20;;
12814;SDS011;6472;52.328;13.070;2024-01-27T08:42:13;9.37;;;2.70;;
12814;SDS011;6472;52.328;13.070;2024-01-27T08:44:41;9.70;;;2.80;;
12814;SDS011;6472;52.328;13.070;2024-01-27T08:47:10;11.63;;;3.03;;
12814;SDS011;6472;52.328;13.070;2024-01-27T08:49:38;12.77;;;2.33;;
12814;SDS011;6472;52.328;13.070;2024-01-27T08:52:06;9.30;;;2.73;;
12814;SDS011;6472;52.328;13.070;2024-01-27T08:54:36;13.57;;;2.73;;
12814;SDS011;6472;52.328;13.070;2024-01-27T08:57:04;11.10;;;3.33;;
12814;SDS011;6472;52.328;13.070;2024-01-27T08:59:32;14.53;;;2.37;;
12814;SDS011;6472;52.328;13.070;2024-01-27T09:02:02;13.47;;;2.90;;
12814;SDS011;6472;52.328;13.070;2024-01-27T09:04:31;12.57;;;3.13;;
12814;SDS011;6472;52.328;13.070;2024-01-27T09:06:59;4.97;;;2.63;;
12814;SDS011;6472;52.328;13.070;2024-01-27T09:09:28;6.47;;;2.20;;
12814;SDS011;6472;52.328;13.070;2024-01-27T09:11:58;11.07;;;3.00;;
12814;SDS011;6472;52.328;13.070;2024-01-27T09:14:26;11.93;;;3.33;;
12814;SDS011;6472;52.328;13.070;2024-01-27T09:16:54;20.17;;;3.03;;
12814;SDS011;6472;52.328;13.070;2024-01-27T09:19:22;10.80;;;2.63;;
12814;SDS011;6472;52.328;13.070;2024-01-27T09:21:50;12.13;;;2.80;;
12814;SDS011;6472;52.328;13.070;2024-01-27T09:24:18;7.97;;;2.70;;
12814;SDS011;6472;52.328;13.070;2024-01-27T09:26:46;12.87;;;2.67;;
12814;SDS011;6472;52.328;13.070;2024-01-27T09:29:15;8.83;;;2.63;;
12814;SDS011;6472;52.328;13.070;2024-01-27T09:31:43;16.53;;;3.17;;
12814;SDS011;6472;52.328;13.070;2024-01-27T09:34:11;12.83;;;2.90;;
12814;SDS011;6472;52.328;13.070;2024-01-27T09:36:40;10.20;;;2.93;;
12814;SDS011;6472;52.328;13.070;2024-01-27T09:39:08;17.93;;;3.27;;
12814;SDS011;6472;52.328;13.070;2024-01-27T09:41:36;15.73;;;2.87;;
12814;SDS011;6472;52.328;13.070;2024-01-27T09:44:04;16.83;;;4.27;;
12814;SDS011;6472;52.328;13.070;2024-01-27T09:46:34;20.90;;;3.70;;
12814;SDS011;6472;52.328;13.070;2024-01-27T09:49:02;13.17;;;3.03;;
12814;SDS011;6472;52.328;13.070;2024-01-27T09:51:31;13.60;;;3.53;;
12814;SDS011;6472;52.328;13.070;2024-01-27T09:54:00;12.73;;;2.90;;
12814;SDS011;6472;52.328;13.070;2024-01-27T09:56:28;14.27;;;3.10;;
12814;SDS011;6472;52.328;13.070;2024-01-27T09:58:57;8.67;;;2.47;;
12814;SDS011;6472;52.328;13.070;2024-01-27T10:01:25;9.93;;;2.80;;
12814;SDS011;6472;52.328;13.070;2024-01-27T10:03:56;15.13;;;3.33;;
12814;SDS011;6472;52.328;13.070;2024-01-27T10:06:25;16.67;;;3.43;;
12814;SDS011;6472;52.328;13.070;2024-01-27T10:08:54;8.77;;;2.93;;
12814;SDS011;6472;52.328;13.070;2024-01-27T10:11:23;10.10;;;2.63;;
12814;SDS011;6472;52.328;13.070;2024-01-27T10:13:54;16.53;;;3.73;;
12814;SDS011;6472;52.328;13.070;2024-01-27T10:16:25;7.93;;;2.57;;
12814;SDS011;6472;52.328;13.070;2024-01-27T10:19:01;11.27;;;3.17;;
12814;SDS011;6472;52.328;13.070;2024-01-27T10:21:30;14.83;;;3.17;;
12814;SDS011;6472;52.328;13.070;2024-01-27T10:23:59;14.17;;;3.57;;
12814;SDS011;6472;52.328;13.070;2024-01-27T10:26:30;7.70;;;2.27;;
12814;SDS011;6472;52.328;13.070;2024-01-27T10:28:59;10.13;;;3.43;;
12814;SDS011;6472;52.328;13.070;2024-01-27T10:31:28;15.37;;;3.10;;
12814;SDS011;6472;52.328;13.070;2024-01-27T10:33:56;9.37;;;2.80;;
12814;SDS011;6472;52.328;13.070;2024-01-27T10:36:27;10.50;;;3.30;;
12814;SDS011;6472;52.328;13.070;2024-01-27T10:39:13;13.43;;;3.43;;
12814;SDS011;6472;52.328;13.070;2024-01-27T10:41:43;6.37;;;2.70;;
12814;SDS011;6472;52.328;13.070;2024-01-27T10:44:13;9.27;;;2.90;;
12814;SDS011;6472;52.328;13.070;2024-01-27T10:46:42;13.57;;;3.23;;
12814;SDS011;6472;52.328;13.070;2024-01-27T10:49:12;13.13;;;4.03;;
12814;SDS011;6472;52.328;13.070;2024-01-27T10:51:45;10.73;;;3.97;;
12814;SDS011;6472;52.328;13.070;2024-01-27T10:54:21;10.20;;;3.63;;
12814;SDS011;6472;52.328;13.070;2024-01-27T10:56:51;10.17;;;3.20;;
12814;SDS011;6472;52.328;13.070;2024-01-27T10:59:22;11.77;;;3.47;;
12814;SDS011;6472;52.328;13.070;2024-01-27T11:01:50;9.10;;;3.73;;
12814;SDS011;6472;52.328;13.070;2024-01-27T11:04:20;14.37;;;3.53;;
12814;SDS011;6472;52.328;13.070;2024-01-27T11:06:50;10.77;;;3.50;;
12814;SDS011;6472;52.328;13.070;2024-01-27T11:09:20;14.37;;;3.07;;
12814;SDS011;6472;52.328;13.070;2024-01-27T11:11:49;10.50;;;4.07;;
12814;SDS011;6472;52.328;13.070;2024-01-27T11:14:17;14.07;;;3.70;;
12814;SDS011;6472;52.328;13.070;2024-01-27T11:16:45;9.23;;;2.97;;
12814;SDS011;6472;52.328;13.070;2024-01-27T11:19:16;11.50;;;3.63;;
12814;SDS011;6472;52.328;13.070;2024-01-27T11:21:44;12.73;;;3.53;;
12814;SDS011;6472;52.328;13.070;2024-01-27T11:24:15;7.93;;;2.70;;
12814;SDS011;6472;52.328;13.070;2024-01-27T11:26:44;6.03;;;2.93;;
12814;SDS011;6472;52.328;13.070;2024-01-27T11:29:12;11.00;;;3.33;;
12814;SDS011;6472;52.328;13.070;2024-01-27T11:31:46;11.07;;;3.13;;
12814;SDS011;6472;52.328;13.070;2024-01-27T11:34:17;9.60;;;3.37;;
12814;SDS011;6472;52.328;13.070;2024-01-27T11:36:46;7.47;;;2.87;;
12814;SDS011;6472;52.328;13.070;2024-01-27T11:39:25;12.40;;;3.40;;
12814;SDS011;6472;52.328;13.070;2024-01-27T11:42:04;12.17;;;3.27;;
12814;SDS011;6472;52.328;13.070;2024-01-27T11:44:33;11.90;;;3.23;;
12814;SDS011;6472;52.328;13.070;2024-01-27T11:47:03;14.77;;;3.70;;
12814;SDS011;6472;52.328;13.070;2024-01-27T11:49:33;14.37;;;3.70;;
12814;SDS011;6472;52.328;13.070;2024-01-27T11:52:01;14.67;;;3.80;;
12814;SDS011;6472;52.328;13.070;2024-01-27T11:54:31;12.97;;;4.10;;
12814;SDS011;6472;52.328;13.070;2024-01-27T11:57:00;12.13;;;3.30;;
12814;SDS011;6472;52.328;13.070;2024-01-27T11:59:29;9.93;;;2.70;;
12814;SDS011;6472;52.328;13.070;2024-01-27T12:01:56;14.50;;;4.30;;
12814;SDS011;6472;52.328;13.070;2024-01-27T12:04:24;10.63;;;2.93;;
12814;SDS011;6472;52.328;13.070;2024-01-27T12:06:52;14.27;;;3.63;;
12814;SDS011;6472;52.328;13.070;2024-01-27T12:09:21;9.87;;;3.47;;
12814;SDS011;6472;52.328;13.070;2024-01-27T12:11:51;14.73;;;4.10;;
12814;SDS011;6472;52.328;13.070;2024-01-27T12:14:20;12.33;;;4.60;;
12814;SDS011;6472;52.328;13.070;2024-01-27T12:16:48;9.80;;;3.27;;
12814;SDS011;6472;52.328;13.070;2024-01-27T12:19:16;12.90;;;4.23;;
12814;SDS011;6472;52.328;13.070;2024-01-27T12:21:47;11.03;;;3.87;;
12814;SDS011;6472;52.328;13.070;2024-01-27T12:24:16;11.23;;;3.30;;
12814;SDS011;6472;52.328;13.070;2024-01-27T12:26:47;9.67;;;3.80;;
12814;SDS011;6472;52.328;13.070;2024-01-27T12:29:17;9.43;;;3.67;;
12814;SDS011;6472;52.328;13.070;2024-01-27T12:31:47;12.13;;;3.40;;
12814;SDS011;6472;52.328;13.070;2024-01-27T12:34:16;11.50;;;4.43;;
12814;SDS011;6472;52.328;13.070;2024-01-27T12:36:47;21.97;;;4.80;;
12814;SDS011;6472;52.328;13.070;2024-01-27T12:39:18;9.73;;;4.03;;
12814;SDS011;6472;52.328;13.070;2024-01-27T12:41:48;8.00;;;3.80;;
12814;SDS011;6472;52.328;13.070;2024-01-27T12:44:17;8.37;;;3.63;;
12814;SDS011;6472;52.328;13.070;2024-01-27T12:46:45;16.07;;;3.90;;
12814;SDS011;6472;52.328;13.070;2024-01-27T12:49:13;8.73;;;2.80;;
12814;SDS011;6472;52.328;13.070;2024-01-27T12:51:41;15.70;;;4.23;;
12814;SDS011;6472;52.328;13.070;2024-01-27T12:54:10;12.53;;;3.30;;
12814;SDS011;6472;52.328;13.070;2024-01-27T12:56:38;11.83;;;2.70;;
12814;SDS011;6472;52.328;13.070;2024-01-27T12:59:06;16.87;;;3.37;;
12814;SDS011;6472;52.328;13.070;2024-01-27T13:01:36;10.13;;;3.03;;
12814;SDS011;6472;52.328;13.070;2024-01-27T13:04:04;7.73;;;2.93;;
12814;SDS011;6472;52.328;13.070;2024-01-27T13:06:33;7.67;;;2.73;;
12814;SDS011;6472;52.328;13.070;2024-01-27T13:09:01;9.87;;;3.17;;
12814;SDS011;6472;52.328;13.070;2024-01-27T13:11:29;9.13;;;2.67;;
12814;SDS011;6472;52.328;13.070;2024-01-27T13:13:57;8.60;;;3.30;;
12814;SDS011;6472;52.328;13.070;2024-01-27T13:16:25;7.83;;;2.80;;
12814;SDS011;6472;52.328;13.070;2024-01-27T13:18:54;14.67;;;3.20;;
12814;SDS011;6472;52.328;13.070;2024-01-27T13:21:22;8.70;;;2.50;;
12814;SDS011;6472;52.328;13.070;2024-01-27T13:23:51;12.20;;;3.60;;
12814;SDS011;6472;52.328;13.070;2024-01-27T13:26:19;7.20;;;2.53;;
12814;SDS011;6472;52.328;13.070;2024-01-27T13:28:50;11.63;;;3.23;;
12814;SDS011;6472;52.328;13.070;2024-01-27T13:31:18;8.47;;;2.50;;
12814;SDS011;6472;52.328;13.070;2024-01-27T13:33:46;9.07;;;2.77;;
12814;SDS011;6472;52.328;13.070;2024-01-27T13:36:16;9.43;;;2.23;;
12814;SDS011;6472;52.328;13.070;2024-01-27T13:38:45;12.27;;;3.60;;
12814;SDS011;6472;52.328;13.070;2024-01-27T13:41:13;10.67;;;2.43;;
12814;SDS011;6472;52.328;13.070;2024-01-27T13:43:41;10.17;;;2.57;;
12814;SDS011;6472;52.328;13.070;2024-01-27T13:46:10;8.63;;;2.13;;
12814;SDS011;6472;52.328;13.070;2024-01-27T13:48:38;9.53;;;1.97;;
12814;SDS011;6472;52.328;13.070;2024-01-27T13:51:06;6.77;;;2.33;;
12814;SDS011;6472;52.328;13.070;2024-01-27T13:53:36;9.20;;;2.23;;
12814;SDS011;6472;52.328;13.070;2024-01-27T13:56:13;5.67;;;1.97;;
12814;SDS011;6472;52.328;13.070;2024-01-27T13:58:41;8.10;;;3.30;;
12814;SDS011;6472;52.328;13.070;2024-01-27T14:01:09;8.13;;;3.20;;
12814;SDS011;6472;52.328;13.070;2024-01-27T14:03:38;7.43;;;2.90;;
12814;SDS011;6472;52.328;13.070;2024-01-27T14:06:06;8.17;;;3.43;;
12814;SDS011;6472;52.328;13.070;2024-01-27T14:08:41;9.83;;;2.47;;
12814;SDS011;6472;52.328;13.070;2024-01-27T14:11:09;11.23;;;2.93;;
12814;SDS011;6472;52.328;13.070;2024-01-27T14:13:37;4.47;;;2.20;;
12814;SDS011;6472;52.328;13.070;2024-01-27T14:16:05;7.43;;;2.07;;
12814;SDS011;6472;52.328;13.070;2024-01-27T14:18:33;4.50;;;2.03;;
12814;SDS011;6472;52.328;13.070;2024-01-27T14:21:02;8.03;;;1.87;;
12814;SDS011;6472;52.328;13.070;2024-01-27T14:23:30;8.77;;;2.10;;
12814;SDS011;6472;52.328;13.070;2024-01-27T14:26:00;8.27;;;2.23;;
12814;SDS011;6472;52.328;13.070;2024-01-27T14:28:28;5.13;;;1.80;;
12814;SDS011;6472;52.328;13.070;2024-01-27T14:30:57;7.03;;;2.17;;
12814;SDS011;6472;52.328;13.070;2024-01-27T14:33:24;3.90;;;2.07;;
12814;SDS011;6472;52.328;13.070;2024-01-27T14:35:53;3.27;;;1.97;;
12814;SDS011;6472;52.328;13.070;2024-01-27T14:38:21;8.43;;;2.03;;
12814;SDS011;6472;52.328;13.070;2024-01-27T14:40:49;7.70;;;2.70;;
12814;SDS011;6472;52.328;13.070;2024-01-27T14:43:18;7.87;;;2.27;;
12814;SDS011;6472;52.328;13.070;2024-01-27T14:45:46;7.90;;;2.30;;
12814;SDS011;6472;52.328;13.070;2024-01-27T14:48:15;6.23;;;1.40;;
12814;SDS011;6472;52.328;13.070;2024-01-27T14:50:45;7.23;;;2.17;;